Time;durP1;ratioP1;P1;durP2;ratioP2;P2;SDS_P1;SDS_P2;PMS_P1;PMS_P2;Temp;Humidity;BMP_temperature;BMP_pressure;BME280_temperature;BME280_humidity;BME280_pressure;Samples;Min_cycle;Max_cycle;Signal;HPM_P1;HPM_P2
2023/09/08 00:00:55;;;;;;;8.03;5.70;;;;;;;21.85;98.30;101587.75;5188476;28;20057;-76
2023/09/08 00:03:26;;;;;;;8.83;5.67;;;;;;;22.00;96.58;101572.91;5185610;28;20142;-80
2023/09/08 00:05:57;;;;;;;10.40;6.20;;;;;;;22.01;97.59;101587.06;5194425;28;20046;-81
2023/09/08 00:08:29;;;;;;;10.90;6.27;;;;;;;22.11;95.73;101579.03;5192936;28;20396;-81
2023/09/08 00:11:00;;;;;;;10.03;6.77;;;;;;;21.65;100.00;101585.13;5194331;28;20042;-77
2023/09/08 00:13:31;;;;;;;7.13;5.67;;;;;;;21.76;100.00;101582.25;5193301;28;20038;-81
2023/09/08 00:16:03;;;;;;;8.20;5.60;;;;;;;21.89;99.37;101594.44;5193744;28;20022;-81
2023/09/08 00:18:34;;;;;;;10.63;5.40;;;;;;;21.62;99.37;101590.75;5182525;28;20466;-81
2023/09/08 00:21:05;;;;;;;7.57;6.47;;;;;;;21.86;97.75;101581.41;5173869;28;20049;-78
2023/09/08 00:23:37;;;;;;;9.63;6.23;;;;;;;21.49;100.00;101585.75;5173205;28;20071;-81
2023/09/08 00:26:09;;;;;;;9.20;6.63;;;;;;;21.87;99.34;101591.09;5173651;28;20117;-81
2023/09/08 00:28:40;;;;;;;7.33;6.20;;;;;;;21.79;99.84;101596.28;5173780;28;20124;-80
2023/09/08 00:31:11;;;;;;;8.97;6.43;;;;;;;21.21;100.00;101599.88;5173647;28;20031;-80
2023/09/08 00:33:45;;;;;;;12.77;6.07;;;;;;;21.57;99.78;101588.56;5183570;28;20206;-79
2023/09/08 00:36:16;;;;;;;7.60;6.47;;;;;;;21.63;100.00;101595.09;5192635;28;20023;-82
2023/09/08 00:38:47;;;;;;;11.17;7.73;;;;;;;21.38;100.00;101579.63;5193460;28;20022;-80
2023/09/08 00:41:19;;;;;;;10.23;7.10;;;;;;;21.34;100.00;101596.06;5194073;28;20026;-81
2023/09/08 00:43:50;;;;;;;8.90;6.50;;;;;;;21.58;100.00;101590.22;5194479;28;20041;-82
2023/09/08 00:46:22;;;;;;;9.17;7.23;;;;;;;21.04;100.00;101588.13;5194234;28;20034;-80
2023/09/08 00:48:54;;;;;;;8.60;6.77;;;;;;;21.25;100.00;101595.94;5194275;28;20062;-76
2023/09/08 00:51:26;;;;;;;7.73;6.73;;;;;;;21.39;100.00;101586.66;5194553;28;20421;-81
2023/09/08 00:53:57;;;;;;;8.77;7.43;;;;;;;21.39;100.00;101577.81;5192933;28;20038;-79
2023/09/08 00:56:29;;;;;;;6.83;6.23;;;;;;;21.32;100.00;101584.69;5192506;28;20646;-79
2023/09/08 00:59:02;;;;;;;10.10;7.50;;;;;;;21.48;100.00;101584.09;5193864;28;20030;-80
2023/09/08 01:01:34;;;;;;;8.33;6.70;;;;;;;21.41;100.00;101586.50;5194314;28;20037;-80
2023/09/08 01:04:05;;;;;;;10.60;6.30;;;;;;;21.27;100.00;101588.66;5193700;28;20030;-80
2023/09/08 01:06:37;;;;;;;12.50;6.30;;;;;;;21.24;100.00;101586.25;5193166;28;20037;-79
2023/09/08 01:09:09;;;;;;;7.67;6.40;;;;;;;20.81;100.00;101580.44;5177208;28;20030;-80
2023/09/08 01:11:41;;;;;;;8.43;6.40;;;;;;;20.97;100.00;101582.56;5172149;28;20097;-79
2023/09/08 01:14:15;;;;;;;11.33;6.43;;;;;;;21.01;100.00;101591.94;5171869;28;20031;-79
2023/09/08 01:16:47;;;;;;;;;;;;;;;21.71;100.00;101591.72;5172528;28;20027;-79
2023/09/08 01:19:19;;;;;;;9.33;6.47;;;;;;;20.99;100.00;101580.59;5171307;28;19925;-80
2023/09/08 01:22:28;;;;;;;9.10;5.77;;;;;;;21.27;100.00;101585.16;5187681;28;20044;-78
2023/09/08 01:25:11;;;;;;;10.00;6.67;;;;;;;21.34;100.00;101582.75;5192557;28;20027;-77
2023/09/08 01:27:54;;;;;;;10.07;6.50;;;;;;;20.95;100.00;101589.84;5191315;28;20030;-81
2023/09/08 01:30:28;;;;;;;9.40;7.03;;;;;;;21.00;100.00;101587.59;5190143;28;20098;-82
2023/09/08 01:33:00;;;;;;;6.40;5.67;;;;;;;20.97;100.00;101587.03;5171292;28;20037;-81
2023/09/08 01:35:32;;;;;;;8.27;6.40;;;;;;;20.97;100.00;101587.03;5171941;28;20018;-80
2023/09/08 01:38:03;;;;;;;11.07;6.30;;;;;;;20.84;100.00;101596.13;5182962;28;20105;-81
2023/09/08 01:40:35;;;;;;;7.37;6.17;;;;;;;20.88;100.00;101589.53;5192415;28;20030;-80
2023/09/08 01:43:06;;;;;;;9.27;6.93;;;;;;;20.85;100.00;101592.50;5192816;28;20026;-80
2023/09/08 01:45:37;;;;;;;8.63;6.77;;;;;;;20.46;100.00;101585.34;5193114;28;20038;-77
2023/09/08 01:48:09;;;;;;;9.80;6.63;;;;;;;20.75;100.00;101579.16;5191151;28;20087;-77
2023/09/08 01:50:40;;;;;;;9.63;6.63;;;;;;;20.83;100.00;101581.13;5192434;28;20068;-80
2023/09/08 01:53:11;;;;;;;8.50;6.47;;;;;;;20.83;100.00;101582.94;5171874;28;20026;-80
2023/09/08 01:55:42;;;;;;;9.50;6.57;;;;;;;20.76;100.00;101580.03;5172980;28;20102;-79
2023/09/08 01:58:14;;;;;;;12.93;6.77;;;;;;;20.59;100.00;101579.75;5173354;28;20736;-81
2023/09/08 02:00:49;;;;;;;8.40;6.20;;;;;;;20.25;100.00;101573.03;5173605;28;20070;-80
2023/09/08 02:03:21;;;;;;;8.53;7.23;;;;;;;20.59;100.00;101568.28;5189957;28;20536;-79
2023/09/08 02:05:53;;;;;;;9.87;6.60;;;;;;;20.58;100.00;101577.25;5193253;28;20047;-79
2023/09/08 02:08:24;;;;;;;8.77;6.50;;;;;;;20.47;100.00;101575.56;5191666;28;20413;-76
2023/09/08 02:10:56;;;;;;;6.83;6.23;;;;;;;20.33;100.00;101584.78;5192774;28;20030;-80
2023/09/08 02:13:27;;;;;;;7.77;6.67;;;;;;;20.15;100.00;101574.81;5192381;28;20034;-78
2023/09/08 02:15:58;;;;;;;8.70;6.43;;;;;;;20.24;100.00;101575.81;5172848;28;20030;-80
2023/09/08 02:18:30;;;;;;;7.13;6.43;;;;;;;20.41;100.00;101579.59;5171968;28;20027;-78
2023/09/08 02:21:01;;;;;;;9.00;6.17;;;;;;;20.35;100.00;101582.84;5171477;28;20027;-79
2023/09/08 02:23:32;;;;;;;7.70;6.87;;;;;;;20.18;100.00;101559.44;5188571;28;20096;-81
2023/09/08 02:26:04;;;;;;;10.27;6.63;;;;;;;20.15;100.00;101569.50;5190710;28;20052;-81
2023/09/08 02:28:35;;;;;;;9.20;7.23;;;;;;;20.05;100.00;101564.19;5191658;28;20030;-80
2023/09/08 02:31:06;;;;;;;22.70;7.80;;;;;;;19.90;100.00;101558.38;5191784;28;20097;-76
2023/09/08 02:33:38;;;;;;;7.77;6.27;;;;;;;20.18;100.00;101561.25;5192268;28;20035;-80
2023/09/08 02:36:09;;;;;;;10.30;7.37;;;;;;;20.07;100.00;101565.72;5189604;28;20029;-80
2023/09/08 02:38:41;;;;;;;9.43;6.80;;;;;;;19.90;100.00;101561.03;5171429;28;20034;-80
2023/09/08 02:41:12;;;;;;;9.13;6.90;;;;;;;19.73;100.00;101547.44;5171145;28;20026;-76
2023/09/08 02:43:43;;;;;;;8.93;6.87;;;;;;;19.69;100.00;101565.44;5172010;28;20494;-78
2023/09/08 02:46:15;;;;;;;10.77;6.73;;;;;;;19.78;100.00;101561.16;5171451;28;20027;-80
2023/09/08 02:48:46;;;;;;;8.00;7.07;;;;;;;19.89;100.00;101557.53;5190263;28;20030;-80
2023/09/08 02:51:18;;;;;;;11.43;7.03;;;;;;;19.85;100.00;101550.81;5187704;28;20019;-76
2023/09/08 02:53:49;;;;;;;10.27;7.07;;;;;;;19.98;100.00;101552.38;5170696;28;20030;-80
2023/09/08 02:56:20;;;;;;;13.27;7.43;;;;;;;20.01;100.00;101568.06;5171146;28;20145;-80
2023/09/08 02:58:52;;;;;;;7.87;6.73;;;;;;;20.04;100.00;101559.78;5171766;28;20054;-79
2023/09/08 03:01:23;;;;;;;9.13;6.73;;;;;;;19.90;100.00;101567.19;5169423;28;20075;-79
2023/09/08 03:03:54;;;;;;;7.93;6.20;;;;;;;19.95;100.00;101566.78;5170206;28;20112;-79
2023/09/08 03:06:26;;;;;;;7.87;6.83;;;;;;;19.80;100.00;101561.84;5170025;28;20402;-77
2023/09/08 03:08:59;;;;;;;11.03;6.80;;;;;;;19.86;100.00;101557.81;5171424;28;20029;-79
2023/09/08 03:11:30;;;;;;;9.27;7.57;;;;;;;19.65;100.00;101571.19;5171228;28;20034;-77
2023/09/08 03:14:01;;;;;;;9.63;6.90;;;;;;;19.78;100.00;101561.16;5171156;28;20473;-79
2023/09/08 03:16:33;;;;;;;10.10;6.97;;;;;;;19.37;100.00;101560.28;5169597;28;20621;-80
2023/09/08 03:19:04;;;;;;;8.43;7.53;;;;;;;19.69;100.00;101565.44;5170878;28;20072;-79
2023/09/08 03:21:35;;;;;;;8.30;7.50;;;;;;;19.70;100.00;101568.97;5171352;28;20061;-78
2023/09/08 03:24:07;;;;;;;9.93;7.63;;;;;;;19.68;100.00;101565.59;5185909;28;20117;-78
2023/09/08 03:26:40;;;;;;;8.90;7.10;;;;;;;19.53;100.00;101563.28;5191523;28;20126;-80
2023/09/08 03:29:11;;;;;;;9.97;7.43;;;;;;;19.64;100.00;101561.50;5180793;28;20746;-80
2023/09/08 03:31:42;;;;;;;12.07;7.70;;;;;;;19.21;100.00;101567.78;5174905;28;20030;-79
2023/09/08 03:34:14;;;;;;;9.53;7.60;;;;;;;19.21;100.00;101567.78;5174831;28;20031;-77
2023/09/08 03:36:45;;;;;;;7.87;7.03;;;;;;;19.43;100.00;101562.41;5179155;28;20045;-78
2023/09/08 03:39:16;;;;;;;8.90;7.57;;;;;;;19.47;100.00;101547.91;5194387;28;20025;-80
2023/09/08 03:41:48;;;;;;;12.37;7.67;;;;;;;19.50;100.00;101557.41;5195259;28;20030;-80
2023/09/08 03:44:19;;;;;;;10.53;7.43;;;;;;;19.26;100.00;101562.06;5194588;28;20385;-80
2023/09/08 03:46:51;;;;;;;10.37;7.20;;;;;;;19.38;100.00;101549.53;5193567;28;20026;-79
2023/09/08 03:49:22;;;;;;;10.50;7.30;;;;;;;19.11;100.00;101548.31;5184781;28;20078;-79
2023/09/08 03:51:58;;;;;;;10.87;8.00;;;;;;;19.34;100.00;101550.75;5181270;28;20045;-79
2023/09/08 03:54:29;;;;;;;11.20;8.70;;;;;;;19.28;100.00;101552.16;5193693;28;20424;-79
2023/09/08 03:57:01;;;;;;;11.90;7.57;;;;;;;19.42;100.00;101552.78;5194025;28;20029;-79
2023/09/08 03:59:32;;;;;;;9.00;8.10;;;;;;;19.47;100.00;101542.59;5191881;28;20011;-77
2023/09/08 04:02:03;;;;;;;9.13;8.23;;;;;;;19.39;100.00;101547.72;5180725;28;20117;-79
2023/09/08 04:04:35;;;;;;;9.43;8.50;;;;;;;18.93;100.00;101548.00;5173309;28;20498;-79
2023/09/08 04:07:06;;;;;;;14.63;8.40;;;;;;;18.95;100.00;101548.72;5191742;28;20088;-79
2023/09/08 04:09:37;;;;;;;12.30;8.03;;;;;;;18.87;100.00;101546.72;5193662;28;20362;-76
2023/09/08 04:12:10;;;;;;;12.67;7.80;;;;;;;19.27;100.00;101547.81;5194710;28;20117;-79
2023/09/08 04:14:42;;;;;;;10.37;7.73;;;;;;;19.28;100.00;101546.00;5193987;28;20030;-77
2023/09/08 04:17:13;;;;;;;10.57;8.87;;;;;;;19.14;100.00;101542.72;5190326;28;20582;-80
2023/09/08 04:19:44;;;;;;;9.87;8.30;;;;;;;18.98;100.00;101551.13;5194748;28;20077;-80
2023/09/08 04:22:16;;;;;;;9.77;7.80;;;;;;;19.32;100.00;101542.94;5193676;28;20035;-80
2023/09/08 04:24:47;;;;;;;9.37;8.40;;;;;;;19.26;100.00;101540.81;5180243;28;20478;-79
2023/09/08 04:27:18;;;;;;;11.03;7.97;;;;;;;19.30;100.00;101547.56;5175148;28;20378;-79
2023/09/08 04:29:49;;;;;;;11.37;7.80;;;;;;;19.29;100.00;101537.03;5199254;28;20045;-78
2023/09/08 04:32:21;;;;;;;10.83;7.83;;;;;;;19.39;100.00;101534.47;5213922;28;20117;-78
2023/09/08 04:34:52;;;;;;;14.20;8.33;;;;;;;19.41;100.00;101532.50;5195694;28;20038;-78
2023/09/08 04:37:24;;;;;;;8.47;7.67;;;;;;;19.39;100.00;101537.09;5181449;28;20058;-76
2023/09/08 04:39:55;;;;;;;13.47;8.73;;;;;;;19.26;100.00;101532.00;5188568;28;20034;-79
2023/09/08 04:42:27;;;;;;;11.93;8.67;;;;;;;19.35;100.00;101533.88;5179474;28;20034;-79
2023/09/08 04:44:58;;;;;;;12.70;9.23;;;;;;;19.24;100.00;101526.84;5184521;28;20617;-79
2023/09/08 04:47:30;;;;;;;12.40;9.03;;;;;;;19.26;100.00;101540.81;5193829;28;20050;-80
2023/09/08 04:50:01;;;;;;;10.30;9.30;;;;;;;19.34;100.00;101543.66;5188294;28;20089;-81
2023/09/08 04:52:32;;;;;;;9.57;7.80;;;;;;;19.07;100.00;101531.75;5178620;28;20086;-81
2023/09/08 04:55:04;;;;;;;12.17;9.57;;;;;;;18.98;100.00;101548.47;5180587;28;20057;-80
2023/09/08 04:57:35;;;;;;;10.60;9.50;;;;;;;19.14;100.00;101550.69;5189161;28;20018;-81
2023/09/08 05:00:07;;;;;;;14.07;9.73;;;;;;;19.25;100.00;101544.47;5176774;28;20091;-77
2023/09/08 05:02:39;;;;;;;10.53;9.43;;;;;;;19.17;100.00;101553.06;5193133;28;20053;-79
2023/09/08 05:05:10;;;;;;;11.00;8.90;;;;;;;19.33;100.00;101541.13;5187778;28;20043;-81
2023/09/08 05:07:41;;;;;;;11.33;8.77;;;;;;;19.29;100.00;101550.31;5178450;28;20038;-80
2023/09/08 05:10:13;;;;;;;10.90;8.73;;;;;;;19.22;100.00;101550.88;5185494;28;20117;-76
2023/09/08 05:12:44;;;;;;;10.87;8.87;;;;;;;19.19;100.00;101550.28;5189691;28;20123;-76
2023/09/08 05:15:16;;;;;;;13.43;10.00;;;;;;;19.22;100.00;101528.78;5173701;28;20878;-78
2023/09/08 05:17:47;;;;;;;13.03;8.80;;;;;;;19.17;100.00;101560.19;5174809;28;20074;-80
2023/09/08 05:20:19;;;;;;;10.80;9.27;;;;;;;19.14;100.00;101552.50;5178612;28;20104;-80
2023/09/08 05:22:50;;;;;;;11.53;8.97;;;;;;;19.38;100.00;101554.00;5187098;28;20026;-80
2023/09/08 05:25:21;;;;;;;11.93;9.27;;;;;;;19.24;100.00;101556.03;5174032;28;20497;-79
2023/09/08 05:27:53;;;;;;;12.90;9.40;;;;;;;19.31;100.00;101554.53;5173299;28;20045;-81
2023/09/08 05:30:24;;;;;;;12.73;10.27;;;;;;;19.24;100.00;101548.06;5194631;28;20031;-80
2023/09/08 05:32:56;;;;;;;10.97;9.73;;;;;;;19.15;100.00;101543.56;5192771;28;20365;-81
2023/09/08 05:35:28;;;;;;;11.60;9.93;;;;;;;19.09;100.00;101561.66;5180592;28;20065;-77
2023/09/08 05:37:59;;;;;;;12.57;9.17;;;;;;;19.27;100.00;101561.09;5180405;28;20090;-76
2023/09/08 05:40:30;;;;;;;15.60;10.27;;;;;;;19.10;100.00;101552.72;5188848;28;20026;-77
2023/09/08 05:43:02;;;;;;;21.27;10.80;;;;;;;19.34;100.00;101567.56;5186267;28;20034;-75
2023/09/08 05:45:34;;;;;;;13.37;9.80;;;;;;;19.38;100.00;101569.94;5213346;28;20033;-75
2023/09/08 05:48:05;;;;;;;11.50;10.30;;;;;;;19.32;100.00;101563.38;5198468;28;20039;-76
2023/09/08 05:50:37;;;;;;;14.03;9.80;;;;;;;19.36;100.00;101566.59;5192128;28;20497;-76
2023/09/08 05:53:08;;;;;;;16.13;9.70;;;;;;;19.30;100.00;101568.81;5189832;28;20548;-76
2023/09/08 05:55:39;;;;;;;12.17;9.90;;;;;;;19.41;100.00;101567.03;5192541;28;20026;-76
2023/09/08 05:58:11;;;;;;;11.43;9.47;;;;;;;19.46;100.00;101572.78;5192257;28;20030;-76
2023/09/08 06:00:42;;;;;;;14.47;9.83;;;;;;;19.43;100.00;101573.03;5194142;28;20056;-76
2023/09/08 06:03:13;;;;;;;17.50;10.03;;;;;;;19.28;100.00;101568.09;5211855;28;20024;-76
2023/09/08 06:05:45;;;;;;;19.37;9.60;;;;;;;19.34;100.00;101567.56;5212380;28;20133;-75
2023/09/08 06:08:16;;;;;;;16.13;9.73;;;;;;;19.34;100.00;101570.22;5206625;28;20026;-76
2023/09/08 06:10:48;;;;;;;16.67;9.57;;;;;;;19.34;100.00;101572.88;5194932;28;20152;-75
2023/09/08 06:13:19;;;;;;;13.33;10.43;;;;;;;19.37;100.00;101568.28;5211420;28;20028;-73
2023/09/08 06:15:50;;;;;;;12.80;9.40;;;;;;;19.48;100.00;101572.66;5207949;28;20032;-70
2023/09/08 06:18:22;;;;;;;15.27;9.40;;;;;;;19.63;100.00;101581.09;5212398;28;20036;-69
2023/09/08 06:20:53;;;;;;;15.57;9.83;;;;;;;19.51;100.00;101565.25;5212408;28;20753;-70
2023/09/08 06:23:24;;;;;;;13.13;10.10;;;;;;;19.72;100.00;101582.97;5201767;28;20053;-72
2023/09/08 06:25:59;;;;;;;15.90;9.83;;;;;;;19.67;100.00;101579.88;5191533;28;20018;-71
2023/09/08 06:28:31;;;;;;;20.57;10.80;;;;;;;19.59;100.00;101562.78;5193528;28;20057;-72
2023/09/08 06:31:02;;;;;;;20.73;11.43;;;;;;;19.76;100.00;101579.03;5189990;28;20117;-72
2023/09/08 06:33:33;;;;;;;18.33;12.03;;;;;;;19.86;100.00;101583.56;5191134;28;20041;-71
2023/09/08 06:36:06;;;;;;;20.40;13.03;;;;;;;19.89;100.00;101577.97;5181456;28;20050;-71
2023/09/08 06:38:38;;;;;;;21.97;12.17;;;;;;;19.89;100.00;101572.66;5170549;28;20035;-72
2023/09/08 06:41:12;;;;;;;38.50;15.73;;;;;;;20.05;100.00;101574.81;5185907;28;20042;-73
2023/09/08 06:43:44;;;;;;;49.77;15.57;;;;;;;19.99;100.00;101573.50;5171395;28;20113;-72
2023/09/08 06:46:16;;;;;;;38.53;17.47;;;;;;;19.99;100.00;101578.81;5174107;28;20022;-72
2023/09/08 06:48:48;;;;;;;25.10;12.30;;;;;;;20.11;100.00;101584.91;5191309;28;20027;-72
2023/09/08 06:51:19;;;;;;;30.07;12.33;;;;;;;20.22;100.00;101589.25;5189370;28;20036;-73
2023/09/08 06:53:57;;;;;;;19.93;10.60;;;;;;;20.34;100.00;101589.13;5207559;28;20117;-73
2023/09/08 06:56:29;;;;;;;12.27;9.20;;;;;;;20.36;100.00;101589.81;5211175;28;20057;-72
2023/09/08 06:59:01;;;;;;;17.63;10.37;;;;;;;20.43;100.00;101594.47;5211648;28;20115;-73
2023/09/08 07:01:32;;;;;;;10.93;9.43;;;;;;;20.61;100.00;101590.25;5211924;28;20046;-71
2023/09/08 07:04:04;;;;;;;11.70;9.47;;;;;;;20.53;100.00;101586.47;5201386;28;20121;-71
2023/09/08 07:06:36;;;;;;;18.03;9.27;;;;;;;20.70;100.00;101593.91;5209954;28;20022;-71
2023/09/08 07:09:08;;;;;;;10.30;9.10;;;;;;;20.70;100.00;101597.38;5194019;28;20019;-73
2023/09/08 07:11:39;;;;;;;12.83;8.67;;;;;;;20.83;100.00;101594.44;5193658;28;20026;-74
2023/09/08 07:14:11;;;;;;;18.90;9.80;;;;;;;20.91;100.00;101594.56;5195196;28;20034;-73
2023/09/08 07:16:42;;;;;;;15.63;9.90;;;;;;;21.09;100.00;101596.53;5194555;28;20469;-72
2023/09/08 07:19:13;;;;;;;11.77;9.07;;;;;;;21.22;100.00;101598.06;5196120;28;20022;-72
2023/09/08 07:21:44;;;;;;;12.73;8.17;;;;;;;21.37;100.00;101598.41;5193712;28;20034;-72
2023/09/08 07:24:16;;;;;;;10.80;8.17;;;;;;;21.40;100.00;101603.44;5192906;28;20588;-72
2023/09/08 07:26:48;;;;;;;18.40;8.47;;;;;;;21.47;100.00;101604.56;5194216;28;20035;-74
2023/09/08 07:29:19;;;;;;;13.63;8.70;;;;;;;21.62;100.00;101596.09;5192167;28;20105;-75
2023/09/08 07:31:51;;;;;;;13.97;7.97;;;;;;;21.83;100.00;101597.72;5193627;28;20663;-75
2023/09/08 07:34:22;;;;;;;13.77;8.77;;;;;;;21.98;100.00;101598.03;5194524;28;20498;-75
2023/09/08 07:36:53;;;;;;;11.30;7.70;;;;;;;22.05;100.00;101608.94;5193692;28;20113;-75
2023/09/08 07:39:25;;;;;;;10.20;7.57;;;;;;;22.27;100.00;101604.19;5194338;28;20022;-73
2023/09/08 07:41:56;;;;;;;8.13;6.90;;;;;;;22.33;100.00;101598.22;5194509;28;20041;-76
2023/09/08 07:44:28;;;;;;;10.95;7.00;;;;;;;22.36;100.00;101592.59;5194661;28;20036;-76
2023/09/08 07:46:59;;;;;;;11.90;7.00;;;;;;;22.60;100.00;101588.47;5194511;28;20026;-76
2023/09/08 07:49:33;;;;;;;9.93;7.40;;;;;;;22.81;100.00;101592.69;5194283;28;20038;-77
2023/09/08 07:52:07;;;;;;;9.50;6.88;;;;;;;22.77;100.00;101588.63;5193790;28;20029;-75
2023/09/08 07:54:38;;;;;;;11.95;7.57;;;;;;;22.84;100.00;101590.53;5195062;28;20496;-76
2023/09/08 07:57:09;;;;;;;9.45;7.18;;;;;;;23.11;100.00;101590.53;5192904;28;20014;-76
2023/09/08 07:59:40;;;;;;;10.27;7.38;;;;;;;23.36;100.00;101593.34;5193853;28;20034;-76
2023/09/08 08:02:12;;;;;;;13.18;7.07;;;;;;;23.46;100.00;101585.22;5193586;28;20489;-76
2023/09/08 08:04:43;;;;;;;8.98;6.93;;;;;;;23.79;100.00;101573.84;5193528;28;20050;-76
2023/09/08 08:07:14;;;;;;;13.15;7.75;;;;;;;23.81;100.00;101582.53;5192882;28;20035;-76
2023/09/08 08:09:46;;;;;;;9.98;7.28;;;;;;;23.92;100.00;101582.25;5192414;28;20023;-76
2023/09/08 08:12:17;;;;;;;9.00;6.68;;;;;;;24.07;100.00;101581.59;5193110;28;20057;-76
2023/09/08 08:14:48;;;;;;;6.75;6.05;;;;;;;24.35;99.98;101589.34;5193990;28;20105;-76
2023/09/08 08:17:20;;;;;;;7.60;5.68;;;;;;;24.51;100.00;101585.00;5194273;28;20050;-76
2023/09/08 08:19:52;;;;;;;13.82;6.70;;;;;;;24.75;96.89;101589.53;5194433;28;20037;-77
2023/09/08 08:22:23;;;;;;;6.90;6.20;;;;;;;24.93;93.89;101587.69;5192895;28;20030;-77
2023/09/08 08:24:54;;;;;;;12.00;6.38;;;;;;;25.13;93.39;101599.72;5194037;28;20030;-77
2023/09/08 08:27:26;;;;;;;10.23;6.60;;;;;;;25.20;89.68;101599.03;5194029;28;20141;-76
2023/09/08 08:30:00;;;;;;;10.48;5.90;;;;;;;25.27;92.04;101599.19;5193926;28;20046;-76
2023/09/08 08:32:33;;;;;;;13.20;6.05;;;;;;;25.58;89.83;101596.56;5194161;28;20397;-77
2023/09/08 08:35:04;;;;;;;7.72;5.70;;;;;;;25.54;86.76;101599.75;5192522;28;20057;-76
2023/09/08 08:37:36;;;;;;;8.10;5.50;;;;;;;25.58;86.45;101593.88;5191460;28;20038;-76
2023/09/08 08:40:11;;;;;;;7.10;6.03;;;;;;;25.95;86.18;101606.81;5193709;28;20038;-76
2023/09/08 08:42:42;;;;;;;13.95;6.30;;;;;;;25.83;82.71;101593.78;5193423;28;20057;-77
2023/09/08 08:45:19;;;;;;;11.57;6.68;;;;;;;26.19;82.26;101607.66;5193881;28;20035;-76
2023/09/08 08:47:50;;;;;;;9.07;5.68;;;;;;;26.16;84.48;101597.28;5193321;28;20072;-75
2023/09/08 08:50:24;;;;;;;8.48;4.95;;;;;;;26.57;84.51;101593.47;5193372;28;20026;-77
2023/09/08 08:52:55;;;;;;;8.15;5.63;;;;;;;26.64;81.65;101598.97;5192907;28;20042;-77
2023/09/08 08:55:30;;;;;;;12.27;5.57;;;;;;;26.51;76.90;101597.75;5193179;28;20046;-77
2023/09/08 08:58:05;;;;;;;11.95;5.65;;;;;;;26.45;77.69;101580.50;5193513;28;20030;-76
2023/09/08 09:00:37;;;;;;;8.85;5.22;;;;;;;26.83;78.18;101589.56;5193410;28;20146;-77
2023/09/08 09:03:09;;;;;;;7.28;5.65;;;;;;;26.54;79.13;101589.31;5191978;28;20037;-76
2023/09/08 09:05:41;;;;;;;12.73;5.22;;;;;;;26.61;75.56;101589.44;5192273;28;20470;-75
2023/09/08 09:08:14;;;;;;;6.18;4.47;;;;;;;27.15;78.59;101594.81;5191186;28;20031;-77
2023/09/08 09:10:45;;;;;;;8.48;5.18;;;;;;;27.04;77.34;101588.88;5193837;28;20374;-77
2023/09/08 09:13:17;;;;;;;5.95;4.80;;;;;;;27.25;72.95;101599.91;5193209;28;20042;-77
2023/09/08 09:15:50;;;;;;;12.70;5.65;;;;;;;27.41;74.70;101586.28;5192140;28;20022;-77
2023/09/08 09:18:22;;;;;;;6.72;4.88;;;;;;;27.34;70.07;101598.78;5193538;28;20649;-78
2023/09/08 09:20:55;;;;;;;8.35;5.03;;;;;;;27.40;72.69;101598.03;5192787;28;20073;-77
2023/09/08 09:23:28;;;;;;;8.82;5.00;;;;;;;27.37;72.15;101597.59;5193204;28;20118;-77
2023/09/08 09:26:01;;;;;;;9.07;4.65;;;;;;;27.42;71.75;101590.63;5191928;28;20089;-76
2023/09/08 09:28:32;;;;;;;10.82;5.15;;;;;;;27.63;68.23;101597.09;5193028;28;20061;-76
2023/09/08 09:31:04;;;;;;;10.45;5.43;;;;;;;27.77;70.74;101591.91;5191570;28;20061;-75
2023/09/08 09:33:35;;;;;;;7.75;5.38;;;;;;;27.70;69.85;101597.19;5193221;28;20031;-76
2023/09/08 09:36:09;;;;;;;7.47;5.32;;;;;;;27.97;67.18;101592.13;5191253;28;20034;-75
2023/09/08 09:38:40;;;;;;;;;;;;;;;28.24;69.85;101587.00;5190371;28;20113;-78
2023/09/08 09:41:12;;;;;;;8.57;5.13;;;;;;;28.22;67.43;101586.38;5192065;28;20008;-72
2023/09/08 09:43:44;;;;;;;7.30;5.15;;;;;;;28.30;64.36;101588.09;5201899;28;20040;-80
2023/09/08 09:46:15;;;;;;;8.63;5.30;;;;;;;28.24;67.77;101597.78;5191123;28;20592;-73
2023/09/08 09:48:52;;;;;;;7.88;5.40;;;;;;;28.32;63.91;101593.28;5192336;28;20061;-74
2023/09/08 09:51:23;;;;;;;7.88;5.43;;;;;;;28.15;64.31;101590.88;5192131;28;20054;-74
2023/09/08 09:53:55;;;;;;;9.38;5.70;;;;;;;28.21;66.27;101592.78;5191462;28;20458;-74
2023/09/08 09:56:26;;;;;;;6.97;5.00;;;;;;;28.61;67.24;101588.78;5191598;28;20050;-74
2023/09/08 09:58:59;;;;;;;10.90;5.32;;;;;;;28.63;62.48;101589.44;5194811;28;20065;-73
2023/09/08 10:01:32;;;;;;;8.10;4.90;;;;;;;28.85;63.75;101590.22;5194090;28;20041;-76
2023/09/08 10:04:04;;;;;;;11.23;5.07;;;;;;;28.89;65.88;101587.16;5191863;28;20417;-74
2023/09/08 10:06:37;;;;;;;6.00;4.83;;;;;;;28.91;62.49;101585.06;5191973;28;20523;-75
2023/09/08 10:09:13;;;;;;;6.28;4.88;;;;;;;29.13;63.18;101583.19;5193778;28;20041;-78
2023/09/08 10:11:48;;;;;;;8.10;5.20;;;;;;;29.37;61.47;101588.25;5191946;28;20856;-82
2023/09/08 10:14:21;;;;;;;10.57;5.03;;;;;;;29.66;56.48;101587.16;5192114;28;20473;-88
2023/09/08 10:16:56;;;;;;;21.48;5.88;;;;;;;29.35;57.97;101591.16;5192562;28;20072;-85
2023/09/08 10:19:28;;;;;;;6.38;5.38;;;;;;;29.40;59.68;101593.25;5191879;28;20022;-87
2023/09/08 10:22:00;;;;;;;7.32;4.88;;;;;;;29.83;57.62;101600.31;5190332;28;20062;-87
2023/09/08 10:24:38;;;;;;;6.82;4.88;;;;;;;29.78;56.46;101583.84;5192212;28;20624;-87
2023/09/08 10:27:11;;;;;;;13.38;5.05;;;;;;;30.21;53.82;101584.56;5192359;28;20034;-84
2023/09/08 10:29:43;;;;;;;9.93;5.30;;;;;;;30.50;52.15;101596.03;5192421;28;20088;-83
2023/09/08 10:32:16;;;;;;;7.00;5.18;;;;;;;30.90;51.81;101584.38;5191871;28;20030;-88
2023/09/08 10:34:49;;;;;;;6.55;4.65;;;;;;;31.23;50.80;101593.44;5192377;28;20034;-83
2023/09/08 10:37:27;;;;;;;8.25;5.10;;;;;;;31.33;49.25;101587.59;5190437;28;20126;-86
2023/09/08 10:40:21;;;;;;;7.82;5.40;;;;;;;32.44;50.42;101591.13;5192205;28;20030;-86
2023/09/08 10:43:09;;;;;;;7.63;5.00;;;;;;;32.74;46.85;101585.03;5192512;28;20026;-83
2023/09/08 10:45:44;;;;;;;13.13;5.20;;;;;;;32.52;46.34;101590.84;5191883;28;20034;-85
2023/09/08 10:48:15;;;;;;;8.18;4.90;;;;;;;32.53;45.16;101576.25;5191751;28;20037;-87
2023/09/08 10:50:47;;;;;;;7.07;4.55;;;;;;;32.48;46.44;101578.78;5191699;28;20034;-86
2023/09/08 10:53:19;;;;;;;8.82;4.45;;;;;;;32.73;46.18;101577.94;5190505;28;20050;-80
2023/09/08 10:55:53;;;;;;;5.95;4.43;;;;;;;32.70;43.83;101583.81;5190819;28;20030;-83
2023/09/08 10:58:37;;;;;;;8.57;4.07;;;;;;;32.75;47.08;101570.41;5191415;28;20159;-86
2023/09/08 11:01:22;;;;;;;6.80;4.47;;;;;;;32.81;46.55;101571.41;5191500;28;20530;-84
2023/09/08 11:03:54;;;;;;;9.63;4.13;;;;;;;32.75;44.17;101583.13;5191406;28;20038;-83
2023/09/08 11:06:30;;;;;;;11.23;3.97;;;;;;;33.13;43.04;101573.19;5191259;28;20080;-81
2023/09/08 11:09:08;;;;;;;8.68;4.55;;;;;;;32.92;43.61;101577.97;5190568;28;20121;-86
2023/09/08 11:11:39;;;;;;;8.18;3.72;;;;;;;32.72;44.06;101582.56;5191626;28;20473;-86
2023/09/08 11:14:11;;;;;;;6.35;4.55;;;;;;;32.78;43.28;101572.69;5191309;28;20030;-85
2023/09/08 11:16:43;;;;;;;6.68;4.03;;;;;;;32.55;44.30;101578.75;5191589;28;20062;-84
2023/09/08 11:19:15;;;;;;;5.75;3.75;;;;;;;32.39;46.71;101582.81;5189771;28;20037;-86
2023/09/08 11:21:49;;;;;;;13.35;4.32;;;;;;;32.37;45.92;101583.06;5190132;28;20066;-77
2023/09/08 11:24:21;;;;;;;7.85;4.15;;;;;;;32.42;46.17;101576.97;5190771;28;20049;-79
2023/09/08 11:26:53;;;;;;;9.13;4.32;;;;;;;32.96;43.48;101571.88;5189536;28;20057;-78
2023/09/08 11:29:25;;;;;;;7.78;4.07;;;;;;;32.75;44.40;101570.41;5189666;28;20026;-79
2023/09/08 11:31:56;;;;;;;9.63;4.13;;;;;;;33.04;42.36;101578.06;5191514;28;20414;-87
2023/09/08 11:34:28;;;;;;;6.13;3.83;;;;;;;33.08;42.44;101569.22;5191579;28;20436;-87
2023/09/08 11:37:00;;;;;;;6.03;3.85;;;;;;;32.49;44.57;101569.59;5190721;28;20116;-80
2023/09/08 11:39:31;;;;;;;11.98;4.00;;;;;;;32.65;43.42;101570.94;5190913;28;20058;-82